Time;durP1;ratioP1;P1;durP2;ratioP2;P2;SDS_P1;SDS_P2;PMS_P1;PMS_P2;Temp;Humidity;BMP_temperature;BMP_pressure;BME280_temperature;BME280_humidity;BME280_pressure;Samples;Min_cycle;Max_cycle;Signal;HPM_P1;HPM_P2
2021/11/28 00:01:09;;;;;;;2.50;1.17;;;4.60;99.90;;;;;;4973248;28;20213;-67
2021/11/28 00:03:36;;;;;;;4.23;1.67;;;4.60;99.90;;;;;;4972516;28;20233;-67
2021/11/28 00:06:07;;;;;;;1.93;1.20;;;4.60;99.90;;;;;;4972737;28;20681;-67
2021/11/28 00:11:26;;;;;;;2.77;1.20;;;4.60;99.90;;;;;;4939825;28;20209;-67
2021/11/28 00:14:05;;;;;;;4.43;1.20;;;4.60;99.90;;;;;;4972697;28;20212;-69
2021/11/28 00:16:32;;;;;;;10.60;3.03;;;4.50;99.90;;;;;;4972365;28;20217;-68
2021/11/28 00:18:59;;;;;;;4.63;1.40;;;4.50;99.90;;;;;;4972278;28;20737;-68
2021/11/28 00:21:26;;;;;;;6.23;1.77;;;4.50;99.90;;;;;;4972440;28;20213;-69
2021/11/28 00:23:53;;;;;;;6.07;1.40;;;4.60;99.90;;;;;;4972476;28;20237;-68
2021/11/28 00:26:22;;;;;;;6.83;1.30;;;4.60;99.90;;;;;;4971892;28;20210;-68
2021/11/28 00:28:50;;;;;;;5.60;1.60;;;4.70;99.90;;;;;;4972694;28;20253;-67
2021/11/28 00:31:17;;;;;;;8.17;2.30;;;4.70;99.90;;;;;;4972942;28;20213;-68
2021/11/28 00:33:44;;;;;;;3.87;1.40;;;4.70;99.90;;;;;;4972213;28;20206;-68
2021/11/28 00:36:11;;;;;;;9.80;1.93;;;4.70;99.90;;;;;;4972471;28;20210;-68
2021/11/28 00:38:38;;;;;;;5.97;2.37;;;4.70;99.90;;;;;;4972348;28;20264;-68
2021/11/28 00:41:06;;;;;;;3.17;1.80;;;4.70;99.90;;;;;;4972752;28;20210;-67
2021/11/28 00:43:34;;;;;;;5.73;1.53;;;4.70;99.90;;;;;;4971508;28;20288;-68
2021/11/28 00:46:02;;;;;;;2.47;1.37;;;4.70;99.90;;;;;;4971531;28;20701;-68
2021/11/28 00:48:30;;;;;;;7.97;2.83;;;4.80;99.90;;;;;;4971475;28;20218;-68
2021/11/28 00:51:21;;;;;;;3.90;1.40;;;4.80;99.90;;;;;;4972169;28;20214;-68
2021/11/28 00:53:50;;;;;;;3.03;1.40;;;4.80;99.90;;;;;;4972197;28;20209;-69
2021/11/28 00:56:18;;;;;;;3.73;1.70;;;4.80;99.90;;;;;;4972387;28;20642;-67
2021/11/28 00:58:47;;;;;;;2.80;1.73;;;4.80;99.90;;;;;;4972287;28;20285;-68
2021/11/28 01:01:14;;;;;;;6.53;2.23;;;4.80;99.90;;;;;;4972245;28;20268;-68
2021/11/28 01:03:41;;;;;;;2.83;1.40;;;4.80;99.90;;;;;;4971038;28;20233;-78
2021/11/28 01:06:08;;;;;;;10.30;2.33;;;4.80;99.90;;;;;;4972066;28;20261;-67
2021/11/28 01:08:35;;;;;;;3.03;1.40;;;4.80;99.90;;;;;;4971562;28;20205;-68
2021/11/28 01:11:02;;;;;;;3.50;1.80;;;4.80;99.90;;;;;;4971751;28;20212;-67
2021/11/28 01:13:29;;;;;;;5.00;2.53;;;4.80;99.90;;;;;;4971422;28;20272;-67
2021/11/28 01:15:58;;;;;;;7.37;2.23;;;4.80;99.90;;;;;;4971924;28;20268;-67
2021/11/28 01:18:26;;;;;;;6.33;1.83;;;4.80;99.90;;;;;;4971708;28;20545;-68
2021/11/28 01:20:53;;;;;;;3.13;1.40;;;4.80;99.90;;;;;;4971654;28;20217;-68
2021/11/28 01:23:20;;;;;;;4.00;1.17;;;4.80;99.90;;;;;;4971279;28;20280;-78
2021/11/28 01:25:47;;;;;;;4.37;1.37;;;4.90;99.90;;;;;;4972055;28;20213;-67
2021/11/28 01:28:14;;;;;;;3.20;2.03;;;4.90;99.90;;;;;;4971797;28;20208;-67
2021/11/28 01:30:41;;;;;;;3.33;1.70;;;4.80;99.90;;;;;;4971536;28;20263;-68
2021/11/28 01:33:09;;;;;;;6.70;1.77;;;4.80;99.90;;;;;;4971201;28;20209;-67
2021/11/28 01:35:36;;;;;;;7.93;1.90;;;4.80;99.90;;;;;;4971440;28;20265;-68
2021/11/28 01:38:04;;;;;;;3.40;1.10;;;4.80;99.90;;;;;;4971230;28;20264;-75
2021/11/28 01:40:31;;;;;;;6.27;2.70;;;4.80;99.90;;;;;;4971167;28;20673;-68
2021/11/28 01:43:02;;;;;;;5.30;3.03;;;4.80;99.90;;;;;;4971758;28;20217;-67
2021/11/28 01:45:32;;;;;;;2.50;1.20;;;4.80;99.90;;;;;;4970899;28;20345;-67
2021/11/28 01:48:00;;;;;;;6.37;1.37;;;4.90;99.90;;;;;;4972219;28;20209;-68
2021/11/28 01:50:31;;;;;;;4.33;1.43;;;4.90;99.90;;;;;;4970987;28;20256;-68
2021/11/28 01:52:59;;;;;;;3.47;1.93;;;4.90;99.90;;;;;;4971587;28;20265;-67
2021/11/28 01:55:29;;;;;;;4.13;1.40;;;4.90;99.90;;;;;;4970851;28;20260;-68
2021/11/28 01:57:57;;;;;;;9.57;4.17;;;4.90;99.90;;;;;;4974055;28;20209;-67
2021/11/28 02:00:27;;;;;;;2.13;1.80;;;4.90;99.90;;;;;;4974516;28;20213;-67
2021/11/28 02:02:54;;;;;;;4.20;1.53;;;4.90;99.90;;;;;;4975327;28;20209;-68
2021/11/28 02:05:24;;;;;;;6.00;1.87;;;4.80;99.90;;;;;;4974692;28;20237;-67
2021/11/28 02:07:53;;;;;;;6.13;1.83;;;4.90;99.90;;;;;;4975365;28;20264;-67
2021/11/28 02:10:20;;;;;;;6.63;2.33;;;4.90;99.90;;;;;;4974494;28;20748;-67
2021/11/28 02:12:47;;;;;;;7.77;1.67;;;4.90;99.90;;;;;;4975318;28;20240;-67
2021/11/28 02:15:16;;;;;;;4.93;1.83;;;4.80;99.90;;;;;;4975285;28;20217;-67
2021/11/28 02:17:43;;;;;;;5.17;1.33;;;4.80;99.90;;;;;;4974800;28;20681;-67
2021/11/28 02:20:12;;;;;;;4.67;1.53;;;4.70;99.90;;;;;;4975101;28;20628;-68
2021/11/28 02:22:41;;;;;;;5.80;2.23;;;4.70;99.90;;;;;;4974295;28;20213;-67
2021/11/28 02:25:10;;;;;;;3.67;1.50;;;4.70;99.90;;;;;;4974889;28;20284;-68
2021/11/28 02:27:39;;;;;;;4.27;2.20;;;4.70;99.90;;;;;;4974494;28;20281;-67
2021/11/28 02:30:08;;;;;;;5.43;1.73;;;4.70;99.90;;;;;;4974445;28;20209;-72
2021/11/28 02:32:36;;;;;;;2.80;1.23;;;4.70;99.90;;;;;;4974373;28;20209;-67
2021/11/28 02:35:04;;;;;;;4.90;1.50;;;4.70;99.90;;;;;;4974387;28;20268;-67
2021/11/28 02:37:31;;;;;;;8.13;2.50;;;4.70;99.90;;;;;;4974484;28;20205;-72
2021/11/28 02:40:00;;;;;;;6.60;2.40;;;4.70;99.90;;;;;;4974533;28;20276;-67
2021/11/28 02:42:27;;;;;;;3.23;1.57;;;4.70;99.90;;;;;;4973919;28;20256;-67
2021/11/28 02:44:54;;;;;;;2.97;1.30;;;4.70;99.90;;;;;;4973859;28;20237;-68
2021/11/28 02:47:22;;;;;;;5.53;1.60;;;4.70;99.90;;;;;;4974321;28;20249;-67
2021/11/28 02:49:51;;;;;;;3.90;1.90;;;4.70;99.90;;;;;;4974310;28;20300;-72
2021/11/28 02:52:18;;;;;;;5.90;1.90;;;4.70;99.90;;;;;;4974463;28;20268;-67
2021/11/28 02:54:45;;;;;;;6.50;2.13;;;4.70;99.90;;;;;;4974764;28;20206;-67
2021/11/28 02:57:14;;;;;;;5.33;1.70;;;4.80;99.90;;;;;;4974423;28;20206;-67
2021/11/28 02:59:41;;;;;;;3.40;1.30;;;4.70;99.90;;;;;;4973411;28;20265;-68
2021/11/28 03:02:08;;;;;;;10.10;1.97;;;4.80;99.90;;;;;;4973767;28;20206;-67
2021/11/28 03:04:35;;;;;;;2.57;1.47;;;4.80;99.90;;;;;;4973635;28;20237;-72
2021/11/28 03:07:03;;;;;;;2.47;1.47;;;4.70;99.90;;;;;;4974054;28;20268;-67
2021/11/28 03:09:30;;;;;;;3.77;1.60;;;4.80;99.90;;;;;;4971158;28;20261;-67
2021/11/28 03:11:58;;;;;;;6.13;1.37;;;4.70;99.90;;;;;;4973766;28;20210;-68
2021/11/28 03:14:26;;;;;;;5.87;1.27;;;4.70;99.90;;;;;;4973142;28;20627;-67
2021/11/28 03:16:54;;;;;;;9.00;2.23;;;4.70;99.90;;;;;;4973876;28;20205;-69
2021/11/28 03:19:21;;;;;;;4.63;2.23;;;4.70;99.90;;;;;;4973323;28;20681;-67
2021/11/28 03:21:49;;;;;;;3.67;2.33;;;4.70;99.90;;;;;;4974008;28;20275;-68
2021/11/28 03:24:16;;;;;;;4.33;1.50;;;4.70;99.90;;;;;;4973803;28;20236;-67
2021/11/28 03:26:44;;;;;;;6.70;1.40;;;4.70;99.90;;;;;;4973585;28;20206;-67
2021/11/28 03:29:13;;;;;;;2.67;1.40;;;4.70;99.90;;;;;;4973868;28;20272;-67
2021/11/28 03:31:44;;;;;;;2.93;1.23;;;4.70;99.90;;;;;;4973125;28;20253;-67
2021/11/28 03:34:13;;;;;;;4.73;1.43;;;4.70;99.90;;;;;;4973491;28;20213;-67
2021/11/28 03:36:44;;;;;;;6.77;1.87;;;4.70;99.90;;;;;;4973094;28;20259;-66
2021/11/28 03:39:13;;;;;;;4.13;1.23;;;4.60;99.90;;;;;;4973400;28;20236;-68
2021/11/28 03:41:44;;;;;;;2.47;1.20;;;4.60;99.90;;;;;;4972833;28;20206;-67
2021/11/28 03:44:12;;;;;;;10.13;1.43;;;4.60;99.90;;;;;;4973381;28;20226;-67
2021/11/28 03:46:41;;;;;;;9.73;2.60;;;4.60;99.90;;;;;;4972997;28;20630;-70
2021/11/28 03:49:08;;;;;;;5.90;1.33;;;4.60;99.90;;;;;;4973344;28;20268;-67
2021/11/28 03:51:35;;;;;;;6.27;1.43;;;4.40;99.90;;;;;;4972413;28;20268;-67
2021/11/28 03:54:02;;;;;;;5.93;2.30;;;4.40;99.90;;;;;;4973551;28;20210;-70
2021/11/28 03:56:30;;;;;;;5.77;1.70;;;4.40;99.90;;;;;;4972560;28;20257;-71
2021/11/28 03:58:57;;;;;;;5.77;1.47;;;4.50;99.90;;;;;;4973163;28;20634;-67
2021/11/28 04:01:24;;;;;;;3.07;1.63;;;4.40;99.90;;;;;;4972868;28;20264;-68
2021/11/28 04:03:53;;;;;;;4.17;1.47;;;4.30;99.90;;;;;;4972875;28;20673;-68
2021/11/28 04:06:22;;;;;;;4.60;1.80;;;4.30;99.90;;;;;;4972478;28;20744;-67
2021/11/28 04:08:50;;;;;;;2.57;1.27;;;4.20;99.90;;;;;;4972946;28;20206;-67
2021/11/28 04:11:17;;;;;;;4.97;1.30;;;4.20;99.90;;;;;;4972949;28;20317;-67
2021/11/28 04:13:44;;;;;;;5.67;1.30;;;4.30;99.90;;;;;;4973025;28;20213;-67
2021/11/28 04:16:12;;;;;;;3.90;1.30;;;4.40;99.90;;;;;;4972890;28;20209;-78
2021/11/28 04:18:39;;;;;;;2.77;1.03;;;4.50;99.90;;;;;;4972098;28;21138;-67
2021/11/28 04:21:08;;;;;;;2.40;1.23;;;4.50;99.90;;;;;;4972706;28;20245;-68
2021/11/28 04:23:35;;;;;;;4.37;1.60;;;4.50;99.90;;;;;;4972305;28;20716;-67
2021/11/28 04:26:03;;;;;;;4.30;1.93;;;4.60;99.90;;;;;;4972404;28;20767;-68
2021/11/28 04:28:30;;;;;;;3.20;1.33;;;4.60;99.90;;;;;;4972468;28;20245;-67
2021/11/28 04:30:57;;;;;;;4.70;1.73;;;4.60;99.90;;;;;;4972230;28;20720;-67
2021/11/28 04:33:24;;;;;;;5.67;1.67;;;4.60;99.90;;;;;;4972324;28;20417;-67
2021/11/28 04:35:51;;;;;;;14.93;3.97;;;4.60;99.90;;;;;;4972286;28;20210;-67
2021/11/28 04:38:20;;;;;;;2.50;1.93;;;4.60;99.90;;;;;;4972367;28;20630;-67
2021/11/28 04:40:47;;;;;;;8.47;2.27;;;4.60;99.90;;;;;;4972541;28;20206;-67
2021/11/28 04:43:14;;;;;;;3.97;1.53;;;4.60;99.90;;;;;;4972318;28;20248;-67
2021/11/28 04:45:41;;;;;;;3.60;1.37;;;4.60;99.90;;;;;;4971698;28;20237;-67
2021/11/28 04:48:08;;;;;;;5.17;1.23;;;4.60;99.90;;;;;;4972108;28;20226;-67
2021/11/28 04:50:35;;;;;;;6.23;1.83;;;4.60;99.90;;;;;;4971702;28;20599;-67
2021/11/28 04:53:02;;;;;;;4.93;1.27;;;4.60;99.90;;;;;;4972185;28;20569;-67
2021/11/28 04:55:31;;;;;;;4.60;1.20;;;4.60;99.90;;;;;;4971565;28;20583;-68
2021/11/28 04:57:59;;;;;;;5.13;1.93;;;4.50;99.90;;;;;;4972056;28;20264;-67
2021/11/28 05:00:27;;;;;;;2.37;1.10;;;4.50;99.90;;;;;;4971772;28;20268;-67
2021/11/28 05:02:56;;;;;;;5.43;0.87;;;4.50;99.90;;;;;;4972251;28;20249;-67
2021/11/28 05:05:24;;;;;;;4.57;1.20;;;4.40;99.90;;;;;;4971555;28;20284;-67
2021/11/28 05:07:51;;;;;;;1.63;1.50;;;4.30;99.90;;;;;;4972428;28;20213;-79
2021/11/28 05:10:19;;;;;;;5.93;2.50;;;4.10;99.90;;;;;;4971447;28;20665;-67
2021/11/28 05:12:47;;;;;;;4.63;1.37;;;4.10;99.90;;;;;;4972285;28;20218;-68
2021/11/28 05:15:15;;;;;;;2.83;1.37;;;4.10;99.90;;;;;;4972193;28;20260;-67
2021/11/28 05:17:42;;;;;;;5.83;2.30;;;4.00;99.90;;;;;;4971356;28;20209;-67
2021/11/28 05:20:09;;;;;;;7.60;2.17;;;3.90;99.90;;;;;;4972096;28;20214;-67
2021/11/28 05:22:37;;;;;;;4.70;1.20;;;3.90;99.90;;;;;;4971294;28;20205;-67
2021/11/28 05:25:04;;;;;;;6.23;1.30;;;4.10;99.90;;;;;;4971520;28;20233;-66
2021/11/28 05:27:31;;;;;;;1.77;0.80;;;4.10;99.90;;;;;;4971192;28;20209;-67
2021/11/28 05:30:00;;;;;;;4.13;1.20;;;4.20;99.90;;;;;;4971817;28;20213;-67
2021/11/28 05:32:27;;;;;;;2.27;1.37;;;4.20;99.90;;;;;;4974655;28;20260;-68
2021/11/28 05:34:54;;;;;;;3.30;1.33;;;4.20;99.90;;;;;;4978331;28;20328;-67
2021/11/28 05:37:21;;;;;;;4.57;1.57;;;4.20;99.90;;;;;;4977421;28;20205;-69
2021/11/28 05:39:49;;;;;;;8.03;1.60;;;4.20;99.90;;;;;;4978029;28;20201;-67
2021/11/28 05:42:16;;;;;;;4.00;1.20;;;4.20;99.90;;;;;;4978309;28;20213;-67
2021/11/28 05:44:43;;;;;;;5.50;1.27;;;4.30;99.90;;;;;;4977878;28;20232;-67
2021/11/28 05:47:11;;;;;;;3.40;0.83;;;4.30;99.90;;;;;;4977999;28;20276;-68
2021/11/28 05:49:38;;;;;;;3.67;1.13;;;4.30;99.90;;;;;;4977590;28;20209;-67
2021/11/28 05:52:07;;;;;;;8.27;1.40;;;4.40;99.90;;;;;;4977876;28;20209;-67
2021/11/28 05:54:34;;;;;;;4.57;1.13;;;4.40;99.90;;;;;;4977115;28;20670;-67
2021/11/28 05:57:01;;;;;;;3.87;2.40;;;4.40;99.90;;;;;;4977898;28;20276;-73
2021/11/28 05:59:28;;;;;;;2.73;0.80;;;4.40;99.90;;;;;;4977524;28;20205;-67
2021/11/28 06:01:55;;;;;;;3.57;2.27;;;4.40;99.90;;;;;;4977445;28;20213;-75
2021/11/28 06:04:24;;;;;;;6.43;2.63;;;4.40;99.90;;;;;;4977683;28;20209;-67
2021/11/28 06:06:51;;;;;;;3.90;0.83;;;4.50;99.90;;;;;;4977275;28;20728;-67
2021/11/28 06:09:18;;;;;;;9.03;2.50;;;4.50;99.90;;;;;;4977810;28;21448;-68
2021/11/28 06:11:45;;;;;;;2.33;1.00;;;4.40;99.90;;;;;;4977732;28;20685;-69
2021/11/28 06:14:12;;;;;;;3.13;1.30;;;4.50;99.90;;;;;;4978268;28;20296;-67
2021/11/28 06:16:39;;;;;;;5.93;3.23;;;4.50;99.90;;;;;;4977069;28;20213;-67
2021/11/28 06:19:06;;;;;;;5.87;1.87;;;4.50;99.90;;;;;;4977744;28;20296;-67
2021/11/28 06:21:34;;;;;;;8.03;2.03;;;4.50;99.90;;;;;;4977028;28;20264;-68
2021/11/28 06:24:01;;;;;;;5.30;1.80;;;4.50;99.90;;;;;;4977377;28;20626;-67
2021/11/28 06:26:28;;;;;;;4.70;1.30;;;4.50;99.90;;;;;;4977582;28;20295;-67
2021/11/28 06:28:55;;;;;;;3.27;1.30;;;4.50;99.90;;;;;;4977610;28;20213;-66
2021/11/28 06:31:22;;;;;;;5.80;1.73;;;4.60;99.90;;;;;;4977225;28;20261;-68
2021/11/28 06:33:49;;;;;;;2.30;1.63;;;4.50;99.90;;;;;;4977518;28;20642;-67
2021/11/28 06:36:16;;;;;;;4.67;1.70;;;4.50;99.90;;;;;;4977187;28;20205;-67
2021/11/28 06:38:45;;;;;;;2.73;1.40;;;4.50;99.90;;;;;;4977815;28;20291;-67
2021/11/28 06:41:12;;;;;;;5.27;2.50;;;4.50;99.90;;;;;;4977276;28;20681;-67
2021/11/28 06:43:39;;;;;;;4.57;2.53;;;4.50;99.90;;;;;;4974788;28;20260;-67
2021/11/28 06:46:06;;;;;;;4.47;2.50;;;4.50;99.90;;;;;;4974526;28;20237;-67
2021/11/28 06:48:33;;;;;;;5.17;1.77;;;4.50;99.90;;;;;;4973854;28;20599;-67
2021/11/28 06:51:00;;;;;;;3.93;1.50;;;4.50;99.90;;;;;;4974339;28;20288;-67
2021/11/28 06:53:27;;;;;;;7.63;1.73;;;4.50;99.90;;;;;;4974056;28;20201;-67
2021/11/28 06:55:55;;;;;;;4.57;1.40;;;4.60;99.90;;;;;;4974574;28;20205;-70
2021/11/28 06:58:22;;;;;;;7.13;2.03;;;4.50;99.90;;;;;;4973932;28;20645;-66
2021/11/28 07:00:49;;;;;;;7.47;1.77;;;4.50;99.90;;;;;;4974159;28;20731;-67
2021/11/28 07:03:16;;;;;;;5.87;1.93;;;4.50;99.90;;;;;;4974305;28;20267;-67
2021/11/28 07:05:44;;;;;;;7.43;1.97;;;4.50;99.90;;;;;;4974385;28;20237;-67
2021/11/28 07:08:11;;;;;;;5.13;1.47;;;4.50;99.90;;;;;;4973944;28;20245;-70
2021/11/28 07:10:39;;;;;;;6.00;2.03;;;4.50;99.90;;;;;;4973883;28;20215;-67
2021/11/28 07:13:08;;;;;;;5.27;1.50;;;4.50;99.90;;;;;;4974327;28;20214;-67
2021/11/28 07:15:35;;;;;;;12.57;2.10;;;4.50;99.90;;;;;;4973440;28;20280;-67
2021/11/28 07:18:02;;;;;;;5.17;2.07;;;4.50;99.90;;;;;;4973692;28;20669;-67
2021/11/28 07:20:30;;;;;;;7.67;2.10;;;4.50;99.90;;;;;;4973225;28;20737;-67
2021/11/28 07:22:58;;;;;;;3.80;1.87;;;4.60;99.90;;;;;;4974180;28;20210;-67
2021/11/28 07:25:26;;;;;;;5.87;2.40;;;4.60;99.90;;;;;;4973403;28;20241;-68
2021/11/28 07:27:53;;;;;;;4.37;1.97;;;4.60;99.90;;;;;;4973795;28;20646;-67
2021/11/28 07:30:21;;;;;;;4.90;1.50;;;4.60;99.90;;;;;;4973353;28;20264;-67
2021/11/28 07:32:48;;;;;;;6.20;1.73;;;4.60;99.90;;;;;;4973380;28;20589;-67
2021/11/28 07:35:16;;;;;;;4.93;1.70;;;4.60;99.90;;;;;;4973914;28;20213;-68
2021/11/28 07:37:43;;;;;;;5.13;1.83;;;4.70;99.90;;;;;;4973254;28;20656;-67
2021/11/28 07:40:11;;;;;;;2.80;1.40;;;4.70;99.90;;;;;;4973673;28;20628;-67
2021/11/28 07:42:38;;;;;;;3.03;1.40;;;4.70;99.90;;;;;;4973033;28;20213;-67
2021/11/28 07:45:06;;;;;;;6.23;1.63;;;4.70;99.90;;;;;;4973186;28;20264;-67
2021/11/28 07:47:35;;;;;;;4.83;1.17;;;4.80;99.90;;;;;;4972888;28;20264;-67
2021/11/28 07:50:02;;;;;;;5.73;2.00;;;4.80;99.90;;;;;;4972907;28;20260;-68
2021/11/28 07:52:29;;;;;;;2.70;2.23;;;4.80;99.90;;;;;;4973149;28;20280;-67
2021/11/28 07:54:56;;;;;;;2.43;1.70;;;4.80;99.90;;;;;;4972901;28;20221;-68
2021/11/28 07:57:23;;;;;;;8.60;1.67;;;4.70;99.90;;;;;;4972562;28;20217;-67
2021/11/28 07:59:50;;;;;;;2.50;1.07;;;4.70;99.90;;;;;;4972931;28;20268;-67
2021/11/28 08:02:18;;;;;;;5.43;1.33;;;4.70;99.90;;;;;;4973117;28;20268;-67
2021/11/28 08:04:48;;;;;;;3.17;1.47;;;4.70;99.90;;;;;;4973379;28;20296;-67
2021/11/28 08:07:15;;;;;;;2.30;0.90;;;4.70;99.90;;;;;;4973180;28;20725;-67
2021/11/28 08:09:42;;;;;;;3.23;1.77;;;4.70;99.90;;;;;;4972803;28;20276;-69
2021/11/28 08:12:09;;;;;;;3.57;1.47;;;4.80;99.90;;;;;;4972684;28;20264;-68
2021/11/28 08:14:38;;;;;;;4.63;1.97;;;4.90;99.90;;;;;;4972602;28;20213;-67
2021/11/28 08:17:05;;;;;;;2.43;1.30;;;4.90;99.90;;;;;;4972669;28;20256;-67
2021/11/28 08:19:32;;;;;;;3.70;2.00;;;4.90;99.90;;;;;;4972408;28;20205;-75
2021/11/28 08:22:00;;;;;;;5.03;1.60;;;4.90;99.90;;;;;;4972723;28;20210;-80
2021/11/28 08:24:27;;;;;;;6.27;1.40;;;5.00;99.90;;;;;;4972429;28;20253;-67
2021/11/28 08:26:54;;;;;;;4.27;1.43;;;4.90;99.90;;;;;;4972663;28;20776;-81
2021/11/28 08:29:21;;;;;;;5.20;0.97;;;4.90;99.90;;;;;;4972508;28;20210;-80
2021/11/28 08:31:49;;;;;;;2.00;0.90;;;4.90;99.90;;;;;;4972334;28;20209;-73
2021/11/28 08:34:16;;;;;;;2.80;1.40;;;4.80;99.90;;;;;;4972555;28;20280;-67
2021/11/28 08:36:43;;;;;;;1.50;0.93;;;4.90;99.90;;;;;;4972242;28;20241;-67
2021/11/28 08:39:12;;;;;;;2.13;0.63;;;4.90;99.90;;;;;;4972270;28;20210;-68
2021/11/28 08:41:39;;;;;;;2.07;0.90;;;5.00;99.90;;;;;;4972004;28;20296;-67
2021/11/28 08:44:06;;;;;;;2.23;1.73;;;5.10;99.90;;;;;;4972231;28;20669;-67
2021/11/28 08:46:34;;;;;;;4.10;1.03;;;5.20;99.90;;;;;;4971512;28;20280;-73
2021/11/28 08:49:01;;;;;;;4.30;1.20;;;5.20;99.90;;;;;;4971966;28;20272;-70
2021/11/28 08:51:28;;;;;;;5.90;1.20;;;5.30;99.90;;;;;;4971510;28;20205;-67
2021/11/28 08:53:57;;;;;;;3.87;1.00;;;5.30;99.90;;;;;;4972520;28;20260;-72
2021/11/28 08:56:27;;;;;;;3.07;1.70;;;5.40;99.90;;;;;;4971800;28;20213;-68
2021/11/28 08:58:54;;;;;;;1.97;0.80;;;5.40;99.90;;;;;;4972182;28;20220;-68
2021/11/28 09:01:21;;;;;;;2.20;1.17;;;5.40;99.90;;;;;;4971173;28;20209;-67
2021/11/28 09:03:48;;;;;;;4.07;1.07;;;5.30;99.90;;;;;;4972181;28;20256;-67
2021/11/28 09:06:15;;;;;;;2.90;0.90;;;5.30;99.90;;;;;;4971663;28;20233;-73
2021/11/28 09:08:42;;;;;;;4.13;1.07;;;5.30;99.90;;;;;;4971718;28;20217;-68
2021/11/28 09:11:10;;;;;;;1.00;0.50;;;5.30;99.90;;;;;;4972193;28;20341;-68
2021/11/28 09:13:39;;;;;;;2.63;1.23;;;5.20;99.90;;;;;;4971400;28;20336;-67
2021/11/28 09:16:10;;;;;;;1.87;1.10;;;5.10;99.90;;;;;;4971712;28;20217;-67
2021/11/28 09:18:39;;;;;;;2.20;0.77;;;5.10;99.90;;;;;;4971162;28;21090;-67
2021/11/28 09:21:07;;;;;;;1.73;1.00;;;5.10;99.90;;;;;;4971755;28;20296;-67
2021/11/28 09:26:18;;;;;;;3.33;1.03;;;5.20;99.90;;;;;;4971917;28;20247;-68
2021/11/28 09:28:46;;;;;;;2.47;0.70;;;5.20;99.90;;;;;;4971911;28;20674;-67
2021/11/28 09:31:13;;;;;;;1.27;1.03;;;5.20;99.90;;;;;;4971280;28;20736;-68
2021/11/28 09:33:42;;;;;;;4.57;1.30;;;5.30;99.90;;;;;;4971605;28;20210;-67
2021/11/28 09:36:11;;;;;;;1.93;1.10;;;5.70;99.90;;;;;;4971372;28;20201;-68
2021/11/28 09:38:38;;;;;;;2.73;1.03;;;5.80;99.90;;;;;;4971265;28;20217;-67
2021/11/28 09:41:08;;;;;;;2.50;1.23;;;5.60;99.90;;;;;;4971543;28;20281;-68
2021/11/28 09:43:37;;;;;;;2.77;1.00;;;5.50;99.90;;;;;;4970983;28;20773;-67
2021/11/28 09:46:08;;;;;;;3.87;1.47;;;5.60;99.90;;;;;;4971030;28;20284;-68
2021/11/28 09:48:36;;;;;;;3.63;1.10;;;6.10;99.90;;;;;;4971214;28;20268;-67
2021/11/28 09:51:04;;;;;;;3.60;1.03;;;6.10;99.90;;;;;;4971662;28;20210;-68
2021/11/28 09:53:33;;;;;;;1.90;0.80;;;6.00;99.90;;;;;;4970999;28;20293;-67
2021/11/28 09:56:00;;;;;;;9.67;1.53;;;5.90;99.90;;;;;;4971536;28;20214;-69
2021/11/28 09:58:28;;;;;;;4.80;1.63;;;5.90;99.90;;;;;;4970819;28;20209;-67
2021/11/28 10:00:56;;;;;;;4.53;0.90;;;5.90;99.90;;;;;;4971730;28;20209;-67
2021/11/28 10:03:24;;;;;;;6.20;1.17;;;5.90;99.90;;;;;;4971147;28;20209;-67
2021/11/28 10:05:52;;;;;;;4.67;1.37;;;5.80;99.90;;;;;;4971611;28;20214;-67
2021/11/28 10:08:21;;;;;;;4.00;1.10;;;5.80;99.90;;;;;;4971179;28;20356;-67
2021/11/28 10:11:19;;;;;;;3.63;1.83;;;5.90;99.90;;;;;;4971136;28;20559;-67
2021/11/28 10:13:47;;;;;;;4.37;1.10;;;6.00;99.90;;;;;;4971181;28;20592;-67
2021/11/28 10:16:15;;;;;;;1.50;0.73;;;6.20;99.90;;;;;;4971772;28;20217;-67
2021/11/28 10:18:44;;;;;;;2.80;1.30;;;6.10;99.90;;;;;;4972464;28;20209;-69
2021/11/28 10:21:11;;;;;;;2.50;1.30;;;5.80;99.90;;;;;;4974860;28;20213;-68
2021/11/28 10:24:05;;;;;;;5.27;0.83;;;5.70;99.90;;;;;;4974653;28;20689;-68
2021/11/28 10:26:33;;;;;;;3.23;0.93;;;5.90;99.90;;;;;;4974195;28;20256;-73
2021/11/28 10:29:05;;;;;;;2.60;1.07;;;6.20;99.90;;;;;;4974732;28;20206;-68
2021/11/28 10:31:41;;;;;;;5.43;1.63;;;6.50;99.90;;;;;;4974560;28;20288;-68
2021/11/28 10:34:16;;;;;;;3.87;1.00;;;6.20;99.90;;;;;;4974722;28;20206;-68
2021/11/28 10:36:43;;;;;;;4.07;1.60;;;6.00;99.90;;;;;;4974712;28;20201;-68
2021/11/28 10:39:16;;;;;;;7.37;1.97;;;5.90;99.90;;;;;;4974930;28;20206;-78
2021/11/28 10:41:49;;;;;;;2.37;1.47;;;5.90;99.90;;;;;;4961994;28;20269;-67
2021/11/28 10:44:16;;;;;;;4.03;2.67;;;5.90;99.90;;;;;;4974685;28;20631;-67
2021/11/28 10:46:43;;;;;;;2.80;1.20;;;6.00;99.90;;;;;;4974698;28;20233;-68
2021/11/28 10:49:12;;;;;;;4.87;1.33;;;6.00;99.90;;;;;;4974406;28;20759;-68
2021/11/28 10:51:42;;;;;;;2.97;0.97;;;6.10;99.90;;;;;;4973661;28;20682;-67
2021/11/28 10:54:26;;;;;;;3.43;1.40;;;6.00;99.90;;;;;;4974360;28;20213;-68
2021/11/28 10:57:17;;;;;;;1.47;1.37;;;6.10;99.90;;;;;;4973945;28;20201;-73
2021/11/28 10:59:53;;;;;;;4.63;1.60;;;6.30;99.90;;;;;;4972040;28;20220;-68
2021/11/28 11:02:23;;;;;;;4.97;1.80;;;6.40;99.90;;;;;;4974036;28;20209;-68
2021/11/28 11:04:52;;;;;;;2.00;1.33;;;6.70;99.90;;;;;;4973993;28;20209;-67
2021/11/28 11:07:22;;;;;;;6.87;2.07;;;6.80;99.90;;;;;;4974167;28;20238;-68
2021/11/28 11:09:51;;;;;;;4.10;1.50;;;6.80;99.90;;;;;;4974077;28;20240;-67
2021/11/28 11:12:24;;;;;;;6.40;1.93;;;6.70;99.90;;;;;;4974001;28;20269;-68
2021/11/28 11:14:52;;;;;;;2.63;1.50;;;6.70;99.90;;;;;;4974131;28;20206;-67
2021/11/28 11:17:19;;;;;;;2.90;1.27;;;6.70;99.90;;;;;;4960059;28;20205;-67
2021/11/28 11:19:48;;;;;;;5.90;1.77;;;6.70;99.90;;;;;;4974286;28;20826;-76
2021/11/28 11:22:19;;;;;;;2.67;2.00;;;6.60;99.90;;;;;;4973874;28;20638;-67
2021/11/28 11:24:52;;;;;;;3.40;1.23;;;6.50;99.90;;;;;;4974222;28;20216;-68
2021/11/28 11:27:22;;;;;;;6.53;2.07;;;6.10;99.90;;;;;;4973089;28;20229;-68
2021/11/28 11:29:53;;;;;;;5.60;1.57;;;6.10;99.90;;;;;;4973151;28;20206;-68
2021/11/28 11:32:22;;;;;;;5.33;1.03;;;6.00;99.90;;;;;;4973121;28;20206;-73
2021/11/28 11:34:53;;;;;;;4.73;1.77;;;6.10;99.90;;;;;;4973802;28;20209;-76
2021/11/28 11:37:24;;;;;;;3.47;2.30;;;6.40;99.90;;;;;;4973085;28;20205;-79
2021/11/28 11:39:53;;;;;;;9.43;1.90;;;7.20;99.90;;;;;;4973266;28;20231;-79
2021/11/28 11:42:23;;;;;;;3.03;1.80;;;7.30;99.90;;;;;;4973084;28;20256;-78
2021/11/28 11:44:50;;;;;;;3.13;1.60;;;7.20;99.90;;;;;;4973270;28;20209;-67
2021/11/28 11:47:19;;;;;;;5.27;1.43;;;6.80;99.90;;;;;;4973540;28;20292;-67
2021/11/28 11:49:46;;;;;;;9.20;2.17;;;6.60;99.90;;;;;;4973587;28;20268;-67
2021/11/28 11:52:14;;;;;;;6.20;1.90;;;6.50;99.90;;;;;;4973556;28;20658;-67
2021/11/28 11:54:46;;;;;;;6.73;1.70;;;6.50;99.90;;;;;;4972520;28;20268;-67
2021/11/28 11:57:19;;;;;;;6.63;1.43;;;6.60;99.90;;;;;;4973709;28;20216;-67
2021/11/28 12:00:09;;;;;;;4.50;1.40;;;6.80;99.90;;;;;;4973315;28;20337;-67
2021/11/28 12:02:38;;;;;;;5.10;1.40;;;6.60;99.90;;;;;;4965001;28;20217;-80
2021/11/28 12:05:33;;;;;;;5.37;1.60;;;6.90;99.90;;;;;;4973049;28;20608;-67
2021/11/28 12:08:03;;;;;;;2.60;0.70;;;7.00;99.90;;;;;;4973276;28;20599;-72
2021/11/28 12:10:33;;;;;;;8.20;1.73;;;6.90;99.90;;;;;;4972586;28;20202;-79
2021/11/28 12:13:04;;;;;;;4.37;1.27;;;6.70;99.90;;;;;;4973111;28;20257;-68
2021/11/28 12:15:33;;;;;;;7.43;1.90;;;6.80;99.90;;;;;;4972156;28;20620;-68
2021/11/28 12:18:01;;;;;;;2.07;0.87;;;6.70;99.90;;;;;;4972618;28;20288;-68
2021/11/28 12:20:59;;;;;;;5.77;1.50;;;6.60;99.90;;;;;;4972561;28;20213;-68
2021/11/28 12:23:59;;;;;;;2.27;1.20;;;6.90;99.90;;;;;;4963154;28;20220;-74
2021/11/28 12:26:40;;;;;;;5.27;2.07;;;7.20;99.90;;;;;;4912696;29;20592;-67
2021/11/28 12:29:40;;;;;;;2.57;1.67;;;7.30;99.90;;;;;;4965798;28;20257;-68
2021/11/28 12:32:25;;;;;;;3.37;1.43;;;7.30;99.90;;;;;;4972557;28;20308;-67
2021/11/28 12:34:55;;;;;;;2.07;1.03;;;7.20;99.90;;;;;;4972787;28;20264;-66
2021/11/28 12:37:25;;;;;;;2.20;1.00;;;6.90;99.90;;;;;;4972225;28;20300;-67
2021/11/28 12:39:53;;;;;;;5.83;1.10;;;6.90;99.90;;;;;;4972027;28;20632;-71
2021/11/28 12:42:21;;;;;;;3.43;1.17;;;6.80;99.90;;;;;;4970985;28;20736;-67
2021/11/28 12:45:05;;;;;;;3.63;1.27;;;6.80;99.90;;;;;;4971990;28;20743;-76
2021/11/28 12:47:34;;;;;;;2.80;1.10;;;7.00;99.90;;;;;;4971669;28;20670;-66
2021/11/28 12:50:05;;;;;;;3.70;1.90;;;7.10;99.90;;;;;;4972000;28;20224;-66
2021/11/28 12:52:44;;;;;;;2.23;0.90;;;7.10;99.90;;;;;;4971528;28;20744;-66
2021/11/28 12:55:18;;;;;;;3.17;1.20;;;7.10;99.90;;;;;;4972000;28;20213;-69
2021/11/28 12:57:46;;;;;;;3.00;1.10;;;7.20;99.90;;;;;;4972553;28;20209;-75
2021/11/28 13:00:27;;;;;;;1.77;0.90;;;7.10;99.90;;;;;;4972299;28;20206;-67
2021/11/28 13:02:57;;;;;;;5.10;2.17;;;7.30;99.90;;;;;;4972285;28;20212;-66
2021/11/28 13:05:39;;;;;;;3.53;0.90;;;7.60;99.90;;;;;;4972190;28;20260;-80
2021/11/28 13:08:38;;;;;;;4.33;1.20;;;7.70;99.90;;;;;;4971748;28;20654;-66
2021/11/28 13:11:11;;;;;;;9.90;1.50;;;7.40;99.90;;;;;;4960226;28;20214;-66
2021/11/28 13:13:39;;;;;;;3.57;1.10;;;7.30;99.90;;;;;;4971691;28;20209;-66